Corton, West Virginia
Current Conditions -  °F | °C
As of 2:54 AM on Tuesday 21 Oct 2014 (Local Time) from KCRW Reporting Station
Light Rain Light Rain  
Wind Chill: 52°   Ceiling: 6000
Heat Index: 52°   Visibility: 7mi
Dew Point: 50°   Wind: 10mph
Humidity: 93%   Direction: 230°SW
Pressure: 29.93"   Gusts: NA
Location:  38.4083°N, 81.3392°W
Report Text: KCRW 210654Z 23009KT 7SM -RA SCT031 BKN060 11/10 A2993 RMK AO2 RAB15 SLP131 VLY FG P0004 T01110100
Loading
Personal Weather Stations






























Interactive Weather Map
Tropical Storm Tracking
New forecast layout! Learn more

10-Day Weather Forecast

Advertisements
Track Severe Weather on mobile